sensor_id;sensor_type;location;lat;lon;timestamp;P1;durP1;ratioP1;P2;durP2;ratioP2
47812;SDS011;34221;45.296;9.516;2022-11-30T00:00:08;41.10;;;28.80;;
47812;SDS011;34221;45.296;9.516;2022-11-30T00:00:26;38.05;;;28.10;;
47812;SDS011;34221;45.296;9.516;2022-11-30T00:00:41;35.42;;;27.90;;
47812;SDS011;34221;45.296;9.516;2022-11-30T00:00:56;35.42;;;27.85;;
47812;SDS011;34221;45.296;9.516;2022-11-30T00:01:21;34.25;;;26.70;;
47812;SDS011;34221;45.296;9.516;2022-11-30T00:01:37;37.25;;;27.80;;
47812;SDS011;34221;45.296;9.516;2022-11-30T00:01:52;35.45;;;27.30;;
47812;SDS011;34221;45.296;9.516;2022-11-30T00:02:07;37.38;;;27.73;;
47812;SDS011;34221;45.296;9.516;2022-11-30T00:02:22;40.85;;;28.08;;
47812;SDS011;34221;45.296;9.516;2022-11-30T00:02:38;42.13;;;28.67;;
47812;SDS011;34221;45.296;9.516;2022-11-30T00:02:52;39.85;;;29.17;;
47812;SDS011;34221;45.296;9.516;2022-11-30T00:03:10;35.03;;;27.23;;
47812;SDS011;34221;45.296;9.516;2022-11-30T00:03:25;35.20;;;26.30;;
47812;SDS011;34221;45.296;9.516;2022-11-30T00:03:39;37.20;;;26.80;;
47812;SDS011;34221;45.296;9.516;2022-11-30T00:03:55;39.33;;;27.98;;
47812;SDS011;34221;45.296;9.516;2022-11-30T00:04:10;39.83;;;28.30;;
47812;SDS011;34221;45.296;9.516;2022-11-30T00:04:25;38.95;;;28.20;;
47812;SDS011;34221;45.296;9.516;2022-11-30T00:04:40;39.17;;;28.15;;
47812;SDS011;34221;45.296;9.516;2022-11-30T00:04:55;38.75;;;27.65;;
47812;SDS011;34221;45.296;9.516;2022-11-30T00:05:11;38.67;;;28.73;;
47812;SDS011;34221;45.296;9.516;2022-11-30T00:05:26;37.22;;;28.50;;
47812;SDS011;34221;45.296;9.516;2022-11-30T00:05:41;35.10;;;26.88;;
47812;SDS011;34221;45.296;9.516;2022-11-30T00:05:56;34.10;;;27.13;;
47812;SDS011;34221;45.296;9.516;2022-11-30T00:06:22;34.80;;;26.70;;
47812;SDS011;34221;45.296;9.516;2022-11-30T00:06:40;34.80;;;26.50;;
47812;SDS011;34221;45.296;9.516;2022-11-30T00:06:56;36.35;;;26.52;;
47812;SDS011;34221;45.296;9.516;2022-11-30T00:07:11;36.78;;;26.73;;
47812;SDS011;34221;45.296;9.516;2022-11-30T00:07:26;34.88;;;26.02;;
47812;SDS011;34221;45.296;9.516;2022-11-30T00:07:41;34.97;;;26.25;;
47812;SDS011;34221;45.296;9.516;2022-11-30T00:07:56;34.20;;;26.65;;
47812;SDS011;34221;45.296;9.516;2022-11-30T00:08:14;35.75;;;27.00;;
47812;SDS011;34221;45.296;9.516;2022-11-30T00:08:29;36.72;;;27.30;;
47812;SDS011;34221;45.296;9.516;2022-11-30T00:08:44;36.70;;;26.52;;
47812;SDS011;34221;45.296;9.516;2022-11-30T00:08:59;37.55;;;26.35;;
47812;SDS011;34221;45.296;9.516;2022-11-30T00:09:14;37.70;;;26.52;;
47812;SDS011;34221;45.296;9.516;2022-11-30T00:09:29;40.55;;;26.70;;
47812;SDS011;34221;45.296;9.516;2022-11-30T00:09:43;41.20;;;27.38;;
47812;SDS011;34221;45.296;9.516;2022-11-30T00:09:58;38.70;;;27.80;;
47812;SDS011;34221;45.296;9.516;2022-11-30T00:10:13;38.38;;;27.52;;
47812;SDS011;34221;45.296;9.516;2022-11-30T00:10:29;38.03;;;28.08;;
47812;SDS011;34221;45.296;9.516;2022-11-30T00:10:43;36.20;;;28.23;;
47812;SDS011;34221;45.296;9.516;2022-11-30T00:10:58;36.03;;;27.27;;
47812;SDS011;34221;45.296;9.516;2022-11-30T00:11:14;35.00;;;26.77;;
47812;SDS011;34221;45.296;9.516;2022-11-30T00:11:31;34.50;;;26.38;;
47812;SDS011;34221;45.296;9.516;2022-11-30T00:11:47;36.42;;;27.23;;
47812;SDS011;34221;45.296;9.516;2022-11-30T00:12:02;37.08;;;28.08;;
47812;SDS011;34221;45.296;9.516;2022-11-30T00:12:17;36.72;;;27.80;;
47812;SDS011;34221;45.296;9.516;2022-11-30T00:12:32;37.95;;;27.77;;
47812;SDS011;34221;45.296;9.516;2022-11-30T00:12:48;37.00;;;27.25;;
47812;SDS011;34221;45.296;9.516;2022-11-30T00:13:03;35.58;;;27.77;;
47812;SDS011;34221;45.296;9.516;2022-11-30T00:13:18;35.38;;;27.55;;
47812;SDS011;34221;45.296;9.516;2022-11-30T00:13:33;36.33;;;26.75;;
47812;SDS011;34221;45.296;9.516;2022-11-30T00:13:48;36.95;;;27.65;;
47812;SDS011;34221;45.296;9.516;2022-11-30T00:14:05;35.65;;;27.92;;
47812;SDS011;34221;45.296;9.516;2022-11-30T00:14:20;36.55;;;27.25;;
47812;SDS011;34221;45.296;9.516;2022-11-30T00:14:35;37.22;;;27.10;;
47812;SDS011;34221;45.296;9.516;2022-11-30T00:14:49;36.22;;;26.65;;
47812;SDS011;34221;45.296;9.516;2022-11-30T00:15:04;34.85;;;26.75;;
47812;SDS011;34221;45.296;9.516;2022-11-30T00:15:20;36.53;;;27.63;;
47812;SDS011;34221;45.296;9.516;2022-11-30T00:15:36;39.42;;;28.55;;
47812;SDS011;34221;45.296;9.516;2022-11-30T00:15:51;39.92;;;28.95;;
47812;SDS011;34221;45.296;9.516;2022-11-30T00:16:06;38.25;;;27.85;;
47812;SDS011;34221;45.296;9.516;2022-11-30T00:16:22;40.00;;;26.83;;
47812;SDS011;34221;45.296;9.516;2022-11-30T00:16:37;40.15;;;26.80;;
47812;SDS011;34221;45.296;9.516;2022-11-30T00:16:52;35.75;;;26.52;;
47812;SDS011;34221;45.296;9.516;2022-11-30T00:17:06;36.65;;;26.75;;
47812;SDS011;34221;45.296;9.516;2022-11-30T00:17:21;35.67;;;27.13;;
47812;SDS011;34221;45.296;9.516;2022-11-30T00:17:36;34.58;;;26.45;;
47812;SDS011;34221;45.296;9.516;2022-11-30T00:17:54;37.35;;;26.98;;
47812;SDS011;34221;45.296;9.516;2022-11-30T00:18:10;36.55;;;26.88;;
47812;SDS011;34221;45.296;9.516;2022-11-30T00:18:25;36.30;;;26.52;;
47812;SDS011;34221;45.296;9.516;2022-11-30T00:18:40;37.33;;;27.77;;
47812;SDS011;34221;45.296;9.516;2022-11-30T00:18:55;38.80;;;29.60;;
47812;SDS011;34221;45.296;9.516;2022-11-30T00:19:12;36.47;;;27.85;;
47812;SDS011;34221;45.296;9.516;2022-11-30T00:19:27;34.75;;;26.70;;
47812;SDS011;34221;45.296;9.516;2022-11-30T00:19:42;38.92;;;29.20;;
47812;SDS011;34221;45.296;9.516;2022-11-30T00:19:57;42.10;;;29.73;;
47812;SDS011;34221;45.296;9.516;2022-11-30T00:20:13;39.35;;;28.35;;
47812;SDS011;34221;45.296;9.516;2022-11-30T00:20:29;39.67;;;27.95;;
47812;SDS011;34221;45.296;9.516;2022-11-30T00:20:44;39.90;;;28.02;;
47812;SDS011;34221;45.296;9.516;2022-11-30T00:20:59;36.67;;;28.05;;
47812;SDS011;34221;45.296;9.516;2022-11-30T00:21:15;37.03;;;28.83;;
47812;SDS011;34221;45.296;9.516;2022-11-30T00:21:30;38.70;;;28.93;;
47812;SDS011;34221;45.296;9.516;2022-11-30T00:21:45;38.42;;;28.33;;
47812;SDS011;34221;45.296;9.516;2022-11-30T00:22:01;37.83;;;28.02;;
47812;SDS011;34221;45.296;9.516;2022-11-30T00:22:16;40.00;;;28.03;;
47812;SDS011;34221;45.296;9.516;2022-11-30T00:22:31;36.53;;;26.70;;
47812;SDS011;34221;45.296;9.516;2022-11-30T00:22:45;34.28;;;26.75;;
47812;SDS011;34221;45.296;9.516;2022-11-30T00:23:00;35.38;;;27.67;;
47812;SDS011;34221;45.296;9.516;2022-11-30T00:23:15;36.22;;;27.42;;
47812;SDS011;34221;45.296;9.516;2022-11-30T00:23:34;39.80;;;28.65;;
47812;SDS011;34221;45.296;9.516;2022-11-30T00:23:51;40.28;;;29.67;;
47812;SDS011;34221;45.296;9.516;2022-11-30T00:24:06;39.72;;;29.27;;
47812;SDS011;34221;45.296;9.516;2022-11-30T00:24:21;40.88;;;29.05;;
47812;SDS011;34221;45.296;9.516;2022-11-30T00:24:36;40.95;;;28.73;;
47812;SDS011;34221;45.296;9.516;2022-11-30T00:24:51;38.35;;;28.33;;
47812;SDS011;34221;45.296;9.516;2022-11-30T00:25:06;37.25;;;28.40;;
47812;SDS011;34221;45.296;9.516;2022-11-30T00:25:23;38.92;;;27.80;;
47812;SDS011;34221;45.296;9.516;2022-11-30T00:25:38;39.60;;;27.50;;
47812;SDS011;34221;45.296;9.516;2022-11-30T00:25:53;37.80;;;28.70;;
47812;SDS011;34221;45.296;9.516;2022-11-30T00:26:09;38.08;;;29.00;;
47812;SDS011;34221;45.296;9.516;2022-11-30T00:26:27;36.22;;;27.80;;
47812;SDS011;34221;45.296;9.516;2022-11-30T00:26:43;36.25;;;27.58;;
47812;SDS011;34221;45.296;9.516;2022-11-30T00:26:58;37.75;;;28.60;;
47812;SDS011;34221;45.296;9.516;2022-11-30T00:27:13;35.30;;;27.67;;
47812;SDS011;34221;45.296;9.516;2022-11-30T00:27:28;36.45;;;27.75;;
47812;SDS011;34221;45.296;9.516;2022-11-30T00:27:44;41.05;;;29.60;;
47812;SDS011;34221;45.296;9.516;2022-11-30T00:27:59;38.40;;;28.60;;
47812;SDS011;34221;45.296;9.516;2022-11-30T00:28:15;37.53;;;28.63;;
47812;SDS011;34221;45.296;9.516;2022-11-30T00:28:30;38.85;;;28.90;;
47812;SDS011;34221;45.296;9.516;2022-11-30T00:28:46;38.08;;;28.33;;
47812;SDS011;34221;45.296;9.516;2022-11-30T00:29:00;38.70;;;28.58;;
47812;SDS011;34221;45.296;9.516;2022-11-30T00:29:16;41.00;;;28.80;;
47812;SDS011;34221;45.296;9.516;2022-11-30T00:29:31;39.72;;;28.50;;
47812;SDS011;34221;45.296;9.516;2022-11-30T00:29:45;39.30;;;29.02;;
47812;SDS011;34221;45.296;9.516;2022-11-30T00:30:00;39.50;;;29.23;;
47812;SDS011;34221;45.296;9.516;2022-11-30T00:30:15;35.97;;;27.85;;
47812;SDS011;34221;45.296;9.516;2022-11-30T00:30:30;36.92;;;28.80;;
47812;SDS011;34221;45.296;9.516;2022-11-30T00:30:55;41.38;;;30.15;;
47812;SDS011;34221;45.296;9.516;2022-11-30T00:31:14;35.95;;;28.70;;
47812;SDS011;34221;45.296;9.516;2022-11-30T00:31:31;39.00;;;29.30;;
47812;SDS011;34221;45.296;9.516;2022-11-30T00:31:46;40.40;;;28.95;;
47812;SDS011;34221;45.296;9.516;2022-11-30T00:32:01;41.60;;;29.05;;
47812;SDS011;34221;45.296;9.516;2022-11-30T00:32:16;40.40;;;28.70;;
47812;SDS011;34221;45.296;9.516;2022-11-30T00:32:32;39.35;;;28.52;;
47812;SDS011;34221;45.296;9.516;2022-11-30T00:32:47;39.70;;;29.58;;
47812;SDS011;34221;45.296;9.516;2022-11-30T00:33:01;38.73;;;29.07;;
47812;SDS011;34221;45.296;9.516;2022-11-30T00:33:16;40.03;;;29.50;;
47812;SDS011;34221;45.296;9.516;2022-11-30T00:33:32;39.20;;;29.83;;
47812;SDS011;34221;45.296;9.516;2022-11-30T00:33:48;38.00;;;29.15;;
47812;SDS011;34221;45.296;9.516;2022-11-30T00:34:04;43.17;;;32.03;;
47812;SDS011;34221;45.296;9.516;2022-11-30T00:34:18;46.53;;;33.72;;
47812;SDS011;34221;45.296;9.516;2022-11-30T00:34:33;45.05;;;32.78;;
47812;SDS011;34221;45.296;9.516;2022-11-30T00:34:48;42.22;;;31.90;;
47812;SDS011;34221;45.296;9.516;2022-11-30T00:35:03;40.38;;;31.15;;
47812;SDS011;34221;45.296;9.516;2022-11-30T00:35:18;40.38;;;30.70;;
47812;SDS011;34221;45.296;9.516;2022-11-30T00:35:33;44.17;;;33.00;;
47812;SDS011;34221;45.296;9.516;2022-11-30T00:35:55;45.22;;;34.65;;
47812;SDS011;34221;45.296;9.516;2022-11-30T00:36:16;42.13;;;33.40;;
47812;SDS011;34221;45.296;9.516;2022-11-30T00:36:36;44.70;;;34.47;;
47812;SDS011;34221;45.296;9.516;2022-11-30T00:36:52;49.15;;;36.97;;
47812;SDS011;34221;45.296;9.516;2022-11-30T00:37:07;47.92;;;36.13;;
47812;SDS011;34221;45.296;9.516;2022-11-30T00:37:22;45.60;;;34.65;;
47812;SDS011;34221;45.296;9.516;2022-11-30T00:37:37;45.63;;;34.58;;
47812;SDS011;34221;45.296;9.516;2022-11-30T00:37:52;46.03;;;34.28;;
47812;SDS011;34221;45.296;9.516;2022-11-30T00:38:07;45.17;;;33.27;;
47812;SDS011;34221;45.296;9.516;2022-11-30T00:38:22;44.40;;;32.67;;
47812;SDS011;34221;45.296;9.516;2022-11-30T00:38:39;43.13;;;33.00;;
47812;SDS011;34221;45.296;9.516;2022-11-30T00:38:54;42.67;;;32.80;;
47812;SDS011;34221;45.296;9.516;2022-11-30T00:39:09;45.22;;;32.88;;
47812;SDS011;34221;45.296;9.516;2022-11-30T00:39:24;45.83;;;32.60;;
47812;SDS011;34221;45.296;9.516;2022-11-30T00:39:39;42.70;;;31.48;;
47812;SDS011;34221;45.296;9.516;2022-11-30T00:39:54;42.80;;;31.85;;
47812;SDS011;34221;45.296;9.516;2022-11-30T00:40:09;44.50;;;32.40;;
47812;SDS011;34221;45.296;9.516;2022-11-30T00:40:24;43.00;;;31.58;;
47812;SDS011;34221;45.296;9.516;2022-11-30T00:40:39;42.60;;;31.55;;
47812;SDS011;34221;45.296;9.516;2022-11-30T00:40:54;42.00;;;32.08;;
47812;SDS011;34221;45.296;9.516;2022-11-30T00:41:09;40.45;;;30.92;;
47812;SDS011;34221;45.296;9.516;2022-11-30T00:41:24;38.80;;;29.80;;
47812;SDS011;34221;45.296;9.516;2022-11-30T00:41:39;40.72;;;30.13;;
47812;SDS011;34221;45.296;9.516;2022-11-30T00:41:54;40.65;;;29.95;;
47812;SDS011;34221;45.296;9.516;2022-11-30T00:42:09;37.33;;;29.13;;
47812;SDS011;34221;45.296;9.516;2022-11-30T00:42:24;39.42;;;29.33;;
47812;SDS011;34221;45.296;9.516;2022-11-30T00:42:39;41.08;;;29.73;;
47812;SDS011;34221;45.296;9.516;2022-11-30T00:42:55;40.17;;;29.95;;
47812;SDS011;34221;45.296;9.516;2022-11-30T00:43:10;39.25;;;29.45;;
47812;SDS011;34221;45.296;9.516;2022-11-30T00:43:25;39.05;;;28.95;;
47812;SDS011;34221;45.296;9.516;2022-11-30T00:43:40;37.13;;;28.77;;
47812;SDS011;34221;45.296;9.516;2022-11-30T00:43:55;37.13;;;28.63;;
47812;SDS011;34221;45.296;9.516;2022-11-30T00:44:10;38.47;;;29.30;;
47812;SDS011;34221;45.296;9.516;2022-11-30T00:44:25;37.85;;;29.38;;
47812;SDS011;34221;45.296;9.516;2022-11-30T00:44:40;38.25;;;28.75;;
47812;SDS011;34221;45.296;9.516;2022-11-30T00:44:55;40.58;;;28.55;;
47812;SDS011;34221;45.296;9.516;2022-11-30T00:45:10;38.47;;;27.90;;
47812;SDS011;34221;45.296;9.516;2022-11-30T00:45:24;35.97;;;27.63;;
47812;SDS011;34221;45.296;9.516;2022-11-30T00:45:39;36.50;;;27.88;;
47812;SDS011;34221;45.296;9.516;2022-11-30T00:45:55;39.22;;;29.27;;
47812;SDS011;34221;45.296;9.516;2022-11-30T00:46:09;42.63;;;30.08;;
47812;SDS011;34221;45.296;9.516;2022-11-30T00:46:25;42.20;;;28.88;;
47812;SDS011;34221;45.296;9.516;2022-11-30T00:46:40;43.35;;;28.02;;
47812;SDS011;34221;45.296;9.516;2022-11-30T00:46:54;41.03;;;27.48;;
47812;SDS011;34221;45.296;9.516;2022-11-30T00:47:09;37.35;;;28.13;;
47812;SDS011;34221;45.296;9.516;2022-11-30T00:47:24;38.17;;;29.30;;
47812;SDS011;34221;45.296;9.516;2022-11-30T00:47:39;37.60;;;28.58;;
47812;SDS011;34221;45.296;9.516;2022-11-30T00:47:54;37.40;;;28.75;;
47812;SDS011;34221;45.296;9.516;2022-11-30T00:48:09;37.88;;;29.27;;
47812;SDS011;34221;45.296;9.516;2022-11-30T00:48:24;38.88;;;29.05;;
47812;SDS011;34221;45.296;9.516;2022-11-30T00:48:39;39.15;;;28.90;;
47812;SDS011;34221;45.296;9.516;2022-11-30T00:48:55;36.72;;;28.05;;
47812;SDS011;34221;45.296;9.516;2022-11-30T00:49:09;35.28;;;27.60;;
47812;SDS011;34221;45.296;9.516;2022-11-30T00:49:24;39.17;;;28.52;;
47812;SDS011;34221;45.296;9.516;2022-11-30T00:49:40;39.13;;;28.85;;
47812;SDS011;34221;45.296;9.516;2022-11-30T00:49:55;35.78;;;27.42;;
47812;SDS011;34221;45.296;9.516;2022-11-30T00:50:10;37.78;;;27.85;;
47812;SDS011;34221;45.296;9.516;2022-11-30T00:50:25;39.58;;;28.45;;
47812;SDS011;34221;45.296;9.516;2022-11-30T00:50:40;38.35;;;28.30;;
47812;SDS011;34221;45.296;9.516;2022-11-30T00:50:55;36.58;;;28.35;;
47812;SDS011;34221;45.296;9.516;2022-11-30T00:51:11;36.83;;;27.75;;
47812;SDS011;34221;45.296;9.516;2022-11-30T00:51:26;38.55;;;27.73;;
47812;SDS011;34221;45.296;9.516;2022-11-30T00:51:41;38.55;;;28.52;;
47812;SDS011;34221;45.296;9.516;2022-11-30T00:51:56;35.60;;;27.88;;
47812;SDS011;34221;45.296;9.516;2022-11-30T00:52:11;35.20;;;27.13;;
47812;SDS011;34221;45.296;9.516;2022-11-30T00:52:27;37.78;;;27.65;;
47812;SDS011;34221;45.296;9.516;2022-11-30T00:52:43;38.38;;;28.52;;
47812;SDS011;34221;45.296;9.516;2022-11-30T00:52:58;38.97;;;28.98;;
47812;SDS011;34221;45.296;9.516;2022-11-30T00:53:13;39.58;;;29.33;;
47812;SDS011;34221;45.296;9.516;2022-11-30T00:53:28;39.75;;;29.50;;
47812;SDS011;34221;45.296;9.516;2022-11-30T00:53:43;41.13;;;29.40;;
47812;SDS011;34221;45.296;9.516;2022-11-30T00:53:58;40.28;;;28.80;;
47812;SDS011;34221;45.296;9.516;2022-11-30T00:54:13;38.88;;;28.67;;
47812;SDS011;34221;45.296;9.516;2022-11-30T00:54:28;38.88;;;28.95;;
47812;SDS011;34221;45.296;9.516;2022-11-30T00:54:43;38.08;;;28.73;;
47812;SDS011;34221;45.296;9.516;2022-11-30T00:54:58;38.80;;;29.10;;
47812;SDS011;34221;45.296;9.516;2022-11-30T00:55:13;38.30;;;28.80;;
47812;SDS011;34221;45.296;9.516;2022-11-30T00:55:27;36.88;;;27.73;;
47812;SDS011;34221;45.296;9.516;2022-11-30T00:55:44;36.35;;;27.42;;
47812;SDS011;34221;45.296;9.516;2022-11-30T00:56:00;40.45;;;28.40;;
47812;SDS011;34221;45.296;9.516;2022-11-30T00:56:15;39.58;;;28.02;;
47812;SDS011;34221;45.296;9.516;2022-11-30T00:56:30;37.42;;;27.92;;
47812;SDS011;34221;45.296;9.516;2022-11-30T00:56:45;38.17;;;29.05;;
47812;SDS011;34221;45.296;9.516;2022-11-30T00:57:00;39.88;;;29.63;;
47812;SDS011;34221;45.296;9.516;2022-11-30T00:57:15;39.22;;;28.80;;
47812;SDS011;34221;45.296;9.516;2022-11-30T00:57:30;36.67;;;28.38;;
47812;SDS011;34221;45.296;9.516;2022-11-30T00:57:46;36.22;;;27.77;;
47812;SDS011;34221;45.296;9.516;2022-11-30T00:58:00;36.20;;;27.63;;
47812;SDS011;34221;45.296;9.516;2022-11-30T00:58:15;37.45;;;28.67;;
47812;SDS011;34221;45.296;9.516;2022-11-30T00:58:30;38.03;;;28.48;;
47812;SDS011;34221;45.296;9.516;2022-11-30T00:58:46;35.80;;;27.35;;
47812;SDS011;34221;45.296;9.516;2022-11-30T00:59:01;35.00;;;27.38;;
47812;SDS011;34221;45.296;9.516;2022-11-30T00:59:16;39.00;;;28.33;;
47812;SDS011;34221;45.296;9.516;2022-11-30T00:59:31;42.65;;;29.25;;
47812;SDS011;34221;45.296;9.516;2022-11-30T00:59:46;41.83;;;29.13;;
47812;SDS011;34221;45.296;9.516;2022-11-30T01:00:00;38.67;;;28.02;;
47812;SDS011;34221;45.296;9.516;2022-11-30T01:00:17;37.22;;;27.60;;
47812;SDS011;34221;45.296;9.516;2022-11-30T01:00:33;38.10;;;27.63;;
47812;SDS011;34221;45.296;9.516;2022-11-30T01:00:48;36.92;;;27.58;;
47812;SDS011;34221;45.296;9.516;2022-11-30T01:01:03;36.15;;;27.13;;
47812;SDS011;34221;45.296;9.516;2022-11-30T01:01:18;35.78;;;27.38;;
47812;SDS011;34221;45.296;9.516;2022-11-30T01:01:33;37.05;;;27.92;;
47812;SDS011;34221;45.296;9.516;2022-11-30T01:01:48;37.60;;;27.08;;
47812;SDS011;34221;45.296;9.516;2022-11-30T01:02:03;36.75;;;26.60;;
47812;SDS011;34221;45.296;9.516;2022-11-30T01:02:18;37.67;;;27.90;;
47812;SDS011;34221;45.296;9.516;2022-11-30T01:02:33;39.55;;;28.70;;
47812;SDS011;34221;45.296;9.516;2022-11-30T01:02:52;40.33;;;28.75;;
47812;SDS011;34221;45.296;9.516;2022-11-30T01:03:10;39.17;;;28.48;;
47812;SDS011;34221;45.296;9.516;2022-11-30T01:03:26;40.00;;;29.52;;
47812;SDS011;34221;45.296;9.516;2022-11-30T01:03:41;37.38;;;28.35;;
47812;SDS011;34221;45.296;9.516;2022-11-30T01:03:56;38.67;;;28.33;;
47812;SDS011;34221;45.296;9.516;2022-11-30T01:04:13;40.15;;;29.92;;
47812;SDS011;34221;45.296;9.516;2022-11-30T01:04:28;39.30;;;30.35;;
47812;SDS011;34221;45.296;9.516;2022-11-30T01:04:43;40.13;;;30.35;;
47812;SDS011;34221;45.296;9.516;2022-11-30T01:04:58;41.88;;;30.20;;
47812;SDS011;34221;45.296;9.516;2022-11-30T01:05:13;40.17;;;29.88;;
47812;SDS011;34221;45.296;9.516;2022-11-30T01:05:28;38.28;;;28.30;;
47812;SDS011;34221;45.296;9.516;2022-11-30T01:05:46;39.63;;;28.75;;
47812;SDS011;34221;45.296;9.516;2022-11-30T01:06:02;40.50;;;29.60;;
47812;SDS011;34221;45.296;9.516;2022-11-30T01:06:18;40.83;;;29.25;;
47812;SDS011;34221;45.296;9.516;2022-11-30T01:06:33;39.47;;;29.25;;
47812;SDS011;34221;45.296;9.516;2022-11-30T01:06:49;41.45;;;29.90;;
47812;SDS011;34221;45.296;9.516;2022-11-30T01:07:03;43.53;;;30.08;;
47812;SDS011;34221;45.296;9.516;2022-11-30T01:07:18;40.28;;;29.08;;
47812;SDS011;34221;45.296;9.516;2022-11-30T01:07:33;38.55;;;28.33;;
47812;SDS011;34221;45.296;9.516;2022-11-30T01:07:48;39.65;;;29.27;;
47812;SDS011;34221;45.296;9.516;2022-11-30T01:08:04;39.47;;;29.10;;
47812;SDS011;34221;45.296;9.516;2022-11-30T01:08:21;40.08;;;29.02;;
47812;SDS011;34221;45.296;9.516;2022-11-30T01:08:36;40.03;;;29.83;;
47812;SDS011;34221;45.296;9.516;2022-11-30T01:08:51;39.22;;;29.95;;
47812;SDS011;34221;45.296;9.516;2022-11-30T01:09:06;40.25;;;29.98;;
47812;SDS011;34221;45.296;9.516;2022-11-30T01:09:21;40.08;;;29.63;;
47812;SDS011;34221;45.296;9.516;2022-11-30T01:09:36;39.42;;;29.98;;
47812;SDS011;34221;45.296;9.516;2022-11-30T01:09:51;38.97;;;30.42;;
47812;SDS011;34221;45.296;9.516;2022-11-30T01:10:06;39.38;;;30.92;;
47812;SDS011;34221;45.296;9.516;2022-11-30T01:10:22;42.40;;;32.63;;
47812;SDS011;34221;45.296;9.516;2022-11-30T01:10:37;43.05;;;32.30;;
47812;SDS011;34221;45.296;9.516;2022-11-30T01:10:54;42.28;;;32.50;;
47812;SDS011;34221;45.296;9.516;2022-11-30T01:11:11;41.97;;;32.30;;
47812;SDS011;34221;45.296;9.516;2022-11-30T01:11:31;43.75;;;32.75;;
47812;SDS011;34221;45.296;9.516;2022-11-30T01:11:46;43.00;;;32.08;;
47812;SDS011;34221;45.296;9.516;2022-11-30T01:12:01;43.92;;;32.60;;
47812;SDS011;34221;45.296;9.516;2022-11-30T01:12:16;45.45;;;33.00;;
47812;SDS011;34221;45.296;9.516;2022-11-30T01:12:31;46.40;;;31.98;;
47812;SDS011;34221;45.296;9.516;2022-11-30T01:12:46;45.75;;;32.05;;
47812;SDS011;34221;45.296;9.516;2022-11-30T01:13:01;46.25;;;33.42;;
47812;SDS011;34221;45.296;9.516;2022-11-30T01:13:36;43.10;;;31.48;;
47812;SDS011;34221;45.296;9.516;2022-11-30T01:13:52;43.40;;;31.60;;
47812;SDS011;34221;45.296;9.516;2022-11-30T01:14:08;38.83;;;29.88;;
47812;SDS011;34221;45.296;9.516;2022-11-30T01:14:23;39.17;;;29.58;;
47812;SDS011;34221;45.296;9.516;2022-11-30T01:14:39;40.13;;;29.92;;
47812;SDS011;34221;45.296;9.516;2022-11-30T01:14:54;39.35;;;30.13;;
47812;SDS011;34221;45.296;9.516;2022-11-30T01:15:29;42.15;;;31.67;;
47812;SDS011;34221;45.296;9.516;2022-11-30T01:15:45;43.17;;;31.90;;
47812;SDS011;34221;45.296;9.516;2022-11-30T01:16:00;45.13;;;31.98;;
47812;SDS011;34221;45.296;9.516;2022-11-30T01:16:16;48.55;;;33.17;;
47812;SDS011;34221;45.296;9.516;2022-11-30T01:16:34;50.58;;;33.80;;
47812;SDS011;34221;45.296;9.516;2022-11-30T01:16:49;48.42;;;33.78;;
47812;SDS011;34221;45.296;9.516;2022-11-30T01:17:04;43.08;;;33.65;;
47812;SDS011;34221;45.296;9.516;2022-11-30T01:17:19;43.38;;;33.08;;
47812;SDS011;34221;45.296;9.516;2022-11-30T01:17:34;44.03;;;32.60;;
47812;SDS011;34221;45.296;9.516;2022-11-30T01:17:49;43.97;;;33.33;;
47812;SDS011;34221;45.296;9.516;2022-11-30T01:18:04;44.78;;;33.60;;
47812;SDS011;34221;45.296;9.516;2022-11-30T01:18:19;47.53;;;34.70;;
47812;SDS011;34221;45.296;9.516;2022-11-30T01:18:35;47.72;;;34.47;;
47812;SDS011;34221;45.296;9.516;2022-11-30T01:18:51;47.05;;;33.80;;
47812;SDS011;34221;45.296;9.516;2022-11-30T01:19:06;46.93;;;33.77;;
47812;SDS011;34221;45.296;9.516;2022-11-30T01:19:22;43.90;;;32.88;;
47812;SDS011;34221;45.296;9.516;2022-11-30T01:19:37;43.75;;;32.70;;
47812;SDS011;34221;45.296;9.516;2022-11-30T01:19:52;43.45;;;32.50;;
47812;SDS011;34221;45.296;9.516;2022-11-30T01:20:07;43.33;;;32.58;;
47812;SDS011;34221;45.296;9.516;2022-11-30T01:20:22;46.00;;;33.50;;
47812;SDS011;34221;45.296;9.516;2022-11-30T01:20:41;43.50;;;32.72;;
47812;SDS011;34221;45.296;9.516;2022-11-30T01:20:56;40.13;;;30.98;;
47812;SDS011;34221;45.296;9.516;2022-11-30T01:21:13;43.97;;;32.13;;
47812;SDS011;34221;45.296;9.516;2022-11-30T01:21:30;43.85;;;31.85;;
47812;SDS011;34221;45.296;9.516;2022-11-30T01:21:45;45.17;;;31.95;;
47812;SDS011;34221;45.296;9.516;2022-11-30T01:22:00;43.90;;;30.70;;
47812;SDS011;34221;45.296;9.516;2022-11-30T01:22:15;40.60;;;28.80;;
47812;SDS011;34221;45.296;9.516;2022-11-30T01:22:30;42.00;;;29.55;;
47812;SDS011;34221;45.296;9.516;2022-11-30T01:22:45;43.70;;;30.58;;
47812;SDS011;34221;45.296;9.516;2022-11-30T01:23:00;44.13;;;30.80;;
47812;SDS011;34221;45.296;9.516;2022-11-30T01:23:15;41.20;;;30.17;;
47812;SDS011;34221;45.296;9.516;2022-11-30T01:23:30;39.28;;;29.27;;
47812;SDS011;34221;45.296;9.516;2022-11-30T01:23:45;40.83;;;28.85;;
47812;SDS011;34221;45.296;9.516;2022-11-30T01:24:00;39.80;;;28.58;;
47812;SDS011;34221;45.296;9.516;2022-11-30T01:24:15;37.92;;;28.05;;
47812;SDS011;34221;45.296;9.516;2022-11-30T01:24:30;38.28;;;29.05;;
47812;SDS011;34221;45.296;9.516;2022-11-30T01:24:45;38.45;;;29.73;;
47812;SDS011;34221;45.296;9.516;2022-11-30T01:25:00;38.15;;;28.42;;
47812;SDS011;34221;45.296;9.516;2022-11-30T01:25:15;43.72;;;28.15;;
47812;SDS011;34221;45.296;9.516;2022-11-30T01:25:30;43.80;;;28.92;;
47812;SDS011;34221;45.296;9.516;2022-11-30T01:25:54;40.40;;;30.00;;
47812;SDS011;34221;45.296;9.516;2022-11-30T01:26:09;43.63;;;30.70;;
47812;SDS011;34221;45.296;9.516;2022-11-30T01:26:24;41.33;;;30.00;;
47812;SDS011;34221;45.296;9.516;2022-11-30T01:26:39;41.05;;;30.48;;
47812;SDS011;34221;45.296;9.516;2022-11-30T01:26:54;41.95;;;30.80;;
47812;SDS011;34221;45.296;9.516;2022-11-30T01:27:09;40.38;;;29.20;;
47812;SDS011;34221;45.296;9.516;2022-11-30T01:27:24;39.08;;;29.63;;
47812;SDS011;34221;45.296;9.516;2022-11-30T01:27:39;40.65;;;29.63;;
47812;SDS011;34221;45.296;9.516;2022-11-30T01:27:54;41.30;;;29.52;;
47812;SDS011;34221;45.296;9.516;2022-11-30T01:28:09;38.38;;;28.85;;
47812;SDS011;34221;45.296;9.516;2022-11-30T01:28:24;37.22;;;28.38;;
47812;SDS011;34221;45.296;9.516;2022-11-30T01:28:39;39.38;;;30.13;;
47812;SDS011;34221;45.296;9.516;2022-11-30T01:28:57;41.72;;;30.80;;
47812;SDS011;34221;45.296;9.516;2022-11-30T01:29:12;44.08;;;30.92;;
47812;SDS011;34221;45.296;9.516;2022-11-30T01:29:26;42.17;;;29.92;;
47812;SDS011;34221;45.296;9.516;2022-11-30T01:29:41;41.50;;;29.98;;
47812;SDS011;34221;45.296;9.516;2022-11-30T01:29:56;42.83;;;30.38;;
47812;SDS011;34221;45.296;9.516;2022-11-30T01:30:11;39.67;;;29.20;;
47812;SDS011;34221;45.296;9.516;2022-11-30T01:30:27;40.92;;;29.17;;
47812;SDS011;34221;45.296;9.516;2022-11-30T01:30:41;40.67;;;29.53;;
47812;SDS011;34221;45.296;9.516;2022-11-30T01:30:57;44.47;;;29.83;;
47812;SDS011;34221;45.296;9.516;2022-11-30T01:31:15;46.50;;;30.17;;